sensor_id;sensor_type;location;lat;lon;timestamp;temperature;humidity
8945;DHT22;4507;40.232;29.132;2023-08-06T00:00:09;26.40;91.20
8945;DHT22;4507;40.232;29.132;2023-08-06T00:02:41;26.40;91.30
8945;DHT22;4507;40.232;29.132;2023-08-06T00:05:10;26.40;91.40
8945;DHT22;4507;40.232;29.132;2023-08-06T00:07:39;26.40;91.50
8945;DHT22;4507;40.232;29.132;2023-08-06T00:10:08;26.30;91.60
8945;DHT22;4507;40.232;29.132;2023-08-06T00:12:37;26.30;91.70
8945;DHT22;4507;40.232;29.132;2023-08-06T00:15:12;26.30;91.80
8945;DHT22;4507;40.232;29.132;2023-08-06T00:17:41;26.20;91.90
8945;DHT22;4507;40.232;29.132;2023-08-06T00:20:12;26.20;92.00
8945;DHT22;4507;40.232;29.132;2023-08-06T00:22:41;26.20;92.10
8945;DHT22;4507;40.232;29.132;2023-08-06T00:25:10;26.20;92.10
8945;DHT22;4507;40.232;29.132;2023-08-06T00:27:39;26.10;92.20
8945;DHT22;4507;40.232;29.132;2023-08-06T00:30:10;26.10;92.20
8945;DHT22;4507;40.232;29.132;2023-08-06T00:40:50;26.00;92.30
8945;DHT22;4507;40.232;29.132;2023-08-06T00:43:20;25.90;92.20
8945;DHT22;4507;40.232;29.132;2023-08-06T00:45:51;26.00;92.20
8945;DHT22;4507;40.232;29.132;2023-08-06T00:48:20;25.90;92.20
8945;DHT22;4507;40.232;29.132;2023-08-06T00:51:03;25.80;92.20
8945;DHT22;4507;40.232;29.132;2023-08-06T00:53:32;25.70;92.20
8945;DHT22;4507;40.232;29.132;2023-08-06T00:56:01;25.70;92.20
8945;DHT22;4507;40.232;29.132;2023-08-06T00:58:30;25.70;92.20
8945;DHT22;4507;40.232;29.132;2023-08-06T01:04:20;25.60;92.40
8945;DHT22;4507;40.232;29.132;2023-08-06T01:06:56;25.60;92.40
8945;DHT22;4507;40.232;29.132;2023-08-06T01:09:53;25.60;92.50
8945;DHT22;4507;40.232;29.132;2023-08-06T01:12:34;25.60;92.50
8945;DHT22;4507;40.232;29.132;2023-08-06T01:15:13;25.50;92.50
8945;DHT22;4507;40.232;29.132;2023-08-06T01:17:45;25.50;92.50
8945;DHT22;4507;40.232;29.132;2023-08-06T01:20:19;25.50;92.60
8945;DHT22;4507;40.232;29.132;2023-08-06T01:23:10;25.40;92.60
8945;DHT22;4507;40.232;29.132;2023-08-06T01:25:43;25.40;92.60
8945;DHT22;4507;40.232;29.132;2023-08-06T01:28:22;25.30;92.60
8945;DHT22;4507;40.232;29.132;2023-08-06T01:30:52;25.30;92.70
8945;DHT22;4507;40.232;29.132;2023-08-06T01:33:23;25.20;92.80
8945;DHT22;4507;40.232;29.132;2023-08-06T01:35:54;25.20;92.90
8945;DHT22;4507;40.232;29.132;2023-08-06T01:38:26;25.10;93.00
8945;DHT22;4507;40.232;29.132;2023-08-06T01:41:01;25.10;93.50
8945;DHT22;4507;40.232;29.132;2023-08-06T01:46:49;25.00;93.50
8945;DHT22;4507;40.232;29.132;2023-08-06T01:49:18;24.90;93.70
8945;DHT22;4507;40.232;29.132;2023-08-06T01:51:49;24.90;93.80
8945;DHT22;4507;40.232;29.132;2023-08-06T01:58:45;24.80;93.90
8945;DHT22;4507;40.232;29.132;2023-08-06T02:01:15;24.80;94.10
8945;DHT22;4507;40.232;29.132;2023-08-06T02:03:46;24.80;94.10
8945;DHT22;4507;40.232;29.132;2023-08-06T02:06:15;24.70;94.20
8945;DHT22;4507;40.232;29.132;2023-08-06T02:08:45;24.70;94.40
8945;DHT22;4507;40.232;29.132;2023-08-06T02:11:17;24.70;94.50
8945;DHT22;4507;40.232;29.132;2023-08-06T02:13:47;24.70;94.60
8945;DHT22;4507;40.232;29.132;2023-08-06T02:16:19;24.70;94.70
8945;DHT22;4507;40.232;29.132;2023-08-06T02:18:50;24.80;94.80
8945;DHT22;4507;40.232;29.132;2023-08-06T02:21:19;24.90;94.90
8945;DHT22;4507;40.232;29.132;2023-08-06T02:23:48;24.80;94.70
8945;DHT22;4507;40.232;29.132;2023-08-06T02:26:17;24.90;94.70
8945;DHT22;4507;40.232;29.132;2023-08-06T02:28:47;24.90;94.70
8945;DHT22;4507;40.232;29.132;2023-08-06T02:31:17;24.90;94.70
8945;DHT22;4507;40.232;29.132;2023-08-06T02:33:47;24.90;94.70
8945;DHT22;4507;40.232;29.132;2023-08-06T02:36:17;24.90;94.70
8945;DHT22;4507;40.232;29.132;2023-08-06T02:38:49;25.00;95.00
8945;DHT22;4507;40.232;29.132;2023-08-06T02:41:27;25.00;94.60
8945;DHT22;4507;40.232;29.132;2023-08-06T02:43:58;25.00;94.50
8945;DHT22;4507;40.232;29.132;2023-08-06T02:46:27;25.00;94.50
8945;DHT22;4507;40.232;29.132;2023-08-06T02:48:57;25.00;94.50
8945;DHT22;4507;40.232;29.132;2023-08-06T02:51:26;25.00;94.60
8945;DHT22;4507;40.232;29.132;2023-08-06T02:53:55;25.10;94.60
8945;DHT22;4507;40.232;29.132;2023-08-06T02:56:23;25.10;94.60
8945;DHT22;4507;40.232;29.132;2023-08-06T02:59:06;25.10;94.60
8945;DHT22;4507;40.232;29.132;2023-08-06T03:01:58;25.10;94.60
8945;DHT22;4507;40.232;29.132;2023-08-06T03:04:37;25.10;94.60
8945;DHT22;4507;40.232;29.132;2023-08-06T03:07:07;25.00;94.50
8945;DHT22;4507;40.232;29.132;2023-08-06T03:09:48;25.00;94.40
8945;DHT22;4507;40.232;29.132;2023-08-06T03:12:18;25.00;94.40
8945;DHT22;4507;40.232;29.132;2023-08-06T03:14:49;24.90;94.40
8945;DHT22;4507;40.232;29.132;2023-08-06T03:17:19;24.90;94.60
8945;DHT22;4507;40.232;29.132;2023-08-06T03:19:48;24.80;94.60
8945;DHT22;4507;40.232;29.132;2023-08-06T03:22:18;24.80;94.70
8945;DHT22;4507;40.232;29.132;2023-08-06T03:24:50;24.60;94.70
8945;DHT22;4507;40.232;29.132;2023-08-06T03:27:22;24.70;94.90
8945;DHT22;4507;40.232;29.132;2023-08-06T03:29:54;24.70;94.90
8945;DHT22;4507;40.232;29.132;2023-08-06T03:32:26;24.70;95.10
8945;DHT22;4507;40.232;29.132;2023-08-06T03:34:55;24.60;95.10
8945;DHT22;4507;40.232;29.132;2023-08-06T03:37:28;24.60;95.20
8945;DHT22;4507;40.232;29.132;2023-08-06T03:39:57;24.60;95.30
8945;DHT22;4507;40.232;29.132;2023-08-06T03:42:26;24.60;95.40
8945;DHT22;4507;40.232;29.132;2023-08-06T03:44:56;24.60;95.50
8945;DHT22;4507;40.232;29.132;2023-08-06T03:47:25;24.60;95.60
8945;DHT22;4507;40.232;29.132;2023-08-06T03:53:46;24.60;95.80
8945;DHT22;4507;40.232;29.132;2023-08-06T03:59:40;24.60;95.90
8945;DHT22;4507;40.232;29.132;2023-08-06T04:02:40;24.70;96.00
8945;DHT22;4507;40.232;29.132;2023-08-06T04:05:12;24.70;95.90
8945;DHT22;4507;40.232;29.132;2023-08-06T04:07:41;24.70;95.80
8945;DHT22;4507;40.232;29.132;2023-08-06T04:10:10;24.70;95.70
8945;DHT22;4507;40.232;29.132;2023-08-06T04:12:40;24.70;95.90
8945;DHT22;4507;40.232;29.132;2023-08-06T04:15:28;24.70;96.20
8945;DHT22;4507;40.232;29.132;2023-08-06T04:17:58;24.70;96.40
8945;DHT22;4507;40.232;29.132;2023-08-06T04:20:27;24.80;96.50
8945;DHT22;4507;40.232;29.132;2023-08-06T04:22:56;24.80;96.60
8945;DHT22;4507;40.232;29.132;2023-08-06T04:25:26;24.90;96.70
8945;DHT22;4507;40.232;29.132;2023-08-06T04:27:55;24.90;96.70
8945;DHT22;4507;40.232;29.132;2023-08-06T04:30:27;25.00;96.70
8945;DHT22;4507;40.232;29.132;2023-08-06T04:32:58;25.00;96.60
8945;DHT22;4507;40.232;29.132;2023-08-06T04:35:27;25.10;96.70
8945;DHT22;4507;40.232;29.132;2023-08-06T04:38:02;25.10;96.70
8945;DHT22;4507;40.232;29.132;2023-08-06T04:40:33;25.20;96.60
8945;DHT22;4507;40.232;29.132;2023-08-06T04:43:03;25.20;96.50
8945;DHT22;4507;40.232;29.132;2023-08-06T04:45:34;25.30;96.40
8945;DHT22;4507;40.232;29.132;2023-08-06T04:48:05;25.30;96.40
8945;DHT22;4507;40.232;29.132;2023-08-06T04:50:34;25.40;96.30
8945;DHT22;4507;40.232;29.132;2023-08-06T04:53:03;25.40;96.20
8945;DHT22;4507;40.232;29.132;2023-08-06T04:55:32;25.50;96.20
8945;DHT22;4507;40.232;29.132;2023-08-06T04:58:01;25.60;96.20
8945;DHT22;4507;40.232;29.132;2023-08-06T05:00:30;25.60;96.00
8945;DHT22;4507;40.232;29.132;2023-08-06T05:03:04;25.60;96.00
8945;DHT22;4507;40.232;29.132;2023-08-06T05:05:35;25.70;96.00
8945;DHT22;4507;40.232;29.132;2023-08-06T05:08:04;25.80;96.00
8945;DHT22;4507;40.232;29.132;2023-08-06T05:10:33;25.90;95.70
8945;DHT22;4507;40.232;29.132;2023-08-06T05:13:02;25.90;95.40
8945;DHT22;4507;40.232;29.132;2023-08-06T05:15:31;26.00;95.00
8945;DHT22;4507;40.232;29.132;2023-08-06T05:18:00;26.00;94.80
8945;DHT22;4507;40.232;29.132;2023-08-06T05:20:31;26.10;94.80
8945;DHT22;4507;40.232;29.132;2023-08-06T05:23:00;26.20;94.80
8945;DHT22;4507;40.232;29.132;2023-08-06T05:25:29;26.30;94.70
8945;DHT22;4507;40.232;29.132;2023-08-06T05:27:58;26.30;94.60
8945;DHT22;4507;40.232;29.132;2023-08-06T05:30:29;26.40;94.40
8945;DHT22;4507;40.232;29.132;2023-08-06T05:32:58;26.50;94.30
8945;DHT22;4507;40.232;29.132;2023-08-06T05:35:27;26.50;94.10
8945;DHT22;4507;40.232;29.132;2023-08-06T05:37:57;26.60;94.00
8945;DHT22;4507;40.232;29.132;2023-08-06T05:40:26;26.70;94.00
8945;DHT22;4507;40.232;29.132;2023-08-06T05:42:55;26.70;93.80
8945;DHT22;4507;40.232;29.132;2023-08-06T05:45:24;26.70;93.70
8945;DHT22;4507;40.232;29.132;2023-08-06T05:47:54;26.80;93.50
8945;DHT22;4507;40.232;29.132;2023-08-06T05:50:28;26.90;93.40
8945;DHT22;4507;40.232;29.132;2023-08-06T05:53:03;27.00;93.10
8945;DHT22;4507;40.232;29.132;2023-08-06T05:55:33;27.10;92.90
8945;DHT22;4507;40.232;29.132;2023-08-06T05:58:02;27.20;92.50
8945;DHT22;4507;40.232;29.132;2023-08-06T06:00:31;27.30;92.10
8945;DHT22;4507;40.232;29.132;2023-08-06T06:03:00;27.40;91.70
8945;DHT22;4507;40.232;29.132;2023-08-06T06:05:30;27.50;91.40
8945;DHT22;4507;40.232;29.132;2023-08-06T06:07:59;27.60;91.30
8945;DHT22;4507;40.232;29.132;2023-08-06T06:10:29;27.70;91.10
8945;DHT22;4507;40.232;29.132;2023-08-06T06:12:58;27.80;91.00
8945;DHT22;4507;40.232;29.132;2023-08-06T06:15:30;27.90;90.80
8945;DHT22;4507;40.232;29.132;2023-08-06T06:18:45;28.00;90.60
8945;DHT22;4507;40.232;29.132;2023-08-06T06:21:15;28.10;90.30
8945;DHT22;4507;40.232;29.132;2023-08-06T06:23:44;28.20;90.00
8945;DHT22;4507;40.232;29.132;2023-08-06T06:30:14;28.40;89.00
8945;DHT22;4507;40.232;29.132;2023-08-06T06:32:45;28.60;88.20
8945;DHT22;4507;40.232;29.132;2023-08-06T06:35:15;28.60;87.70
8945;DHT22;4507;40.232;29.132;2023-08-06T06:37:45;28.80;87.50
8945;DHT22;4507;40.232;29.132;2023-08-06T06:40:32;28.90;86.60
8945;DHT22;4507;40.232;29.132;2023-08-06T06:43:01;29.00;85.70
8945;DHT22;4507;40.232;29.132;2023-08-06T06:45:35;29.10;85.70
8945;DHT22;4507;40.232;29.132;2023-08-06T06:48:04;29.20;85.70
8945;DHT22;4507;40.232;29.132;2023-08-06T06:50:34;29.40;85.40
8945;DHT22;4507;40.232;29.132;2023-08-06T06:53:07;29.50;85.40
8945;DHT22;4507;40.232;29.132;2023-08-06T06:55:37;29.60;85.10
8945;DHT22;4507;40.232;29.132;2023-08-06T06:58:06;29.70;85.10
8945;DHT22;4507;40.232;29.132;2023-08-06T07:05:12;30.00;84.10
8945;DHT22;4507;40.232;29.132;2023-08-06T07:07:41;30.20;83.10
8945;DHT22;4507;40.232;29.132;2023-08-06T07:10:14;30.20;82.50
8945;DHT22;4507;40.232;29.132;2023-08-06T07:13:25;30.40;83.00
8945;DHT22;4507;40.232;29.132;2023-08-06T07:16:06;30.50;82.20
8945;DHT22;4507;40.232;29.132;2023-08-06T07:18:40;30.60;82.40
8945;DHT22;4507;40.232;29.132;2023-08-06T07:21:25;30.60;82.20
8945;DHT22;4507;40.232;29.132;2023-08-06T07:23:54;30.70;81.70
8945;DHT22;4507;40.232;29.132;2023-08-06T07:26:23;30.80;80.50
8945;DHT22;4507;40.232;29.132;2023-08-06T07:28:52;30.80;80.30
8945;DHT22;4507;40.232;29.132;2023-08-06T07:35:21;31.00;80.70
8945;DHT22;4507;40.232;29.132;2023-08-06T07:37:53;31.10;79.40
8945;DHT22;4507;40.232;29.132;2023-08-06T07:40:22;31.10;77.80
8945;DHT22;4507;40.232;29.132;2023-08-06T07:42:51;31.20;76.70
8945;DHT22;4507;40.232;29.132;2023-08-06T07:45:20;31.30;76.70
8945;DHT22;4507;40.232;29.132;2023-08-06T07:47:49;31.40;75.40
8945;DHT22;4507;40.232;29.132;2023-08-06T07:50:19;31.60;74.30
8945;DHT22;4507;40.232;29.132;2023-08-06T07:52:48;31.60;72.90
8945;DHT22;4507;40.232;29.132;2023-08-06T07:55:18;31.80;72.60
8945;DHT22;4507;40.232;29.132;2023-08-06T07:57:50;31.80;71.10
8945;DHT22;4507;40.232;29.132;2023-08-06T08:00:22;32.00;70.80
8945;DHT22;4507;40.232;29.132;2023-08-06T08:02:55;32.10;70.00
8945;DHT22;4507;40.232;29.132;2023-08-06T08:05:24;32.20;67.70
8945;DHT22;4507;40.232;29.132;2023-08-06T08:11:58;32.50;65.90
8945;DHT22;4507;40.232;29.132;2023-08-06T08:14:28;32.70;65.40
8945;DHT22;4507;40.232;29.132;2023-08-06T08:20:47;33.00;63.30
8945;DHT22;4507;40.232;29.132;2023-08-06T08:23:16;33.20;62.00
8945;DHT22;4507;40.232;29.132;2023-08-06T08:25:45;33.30;61.60
8945;DHT22;4507;40.232;29.132;2023-08-06T08:28:16;33.50;61.30
8945;DHT22;4507;40.232;29.132;2023-08-06T08:30:45;33.60;61.30
8945;DHT22;4507;40.232;29.132;2023-08-06T08:33:14;33.70;61.30
8945;DHT22;4507;40.232;29.132;2023-08-06T08:43:06;34.10;60.80
8945;DHT22;4507;40.232;29.132;2023-08-06T08:45:39;34.20;59.90
8945;DHT22;4507;40.232;29.132;2023-08-06T08:48:09;34.30;59.00
8945;DHT22;4507;40.232;29.132;2023-08-06T08:50:42;34.40;57.90
8945;DHT22;4507;40.232;29.132;2023-08-06T08:53:13;34.50;56.30
8945;DHT22;4507;40.232;29.132;2023-08-06T08:55:43;34.60;55.50
8945;DHT22;4507;40.232;29.132;2023-08-06T08:58:13;34.70;55.10
8945;DHT22;4507;40.232;29.132;2023-08-06T09:00:49;34.70;54.70
8945;DHT22;4507;40.232;29.132;2023-08-06T09:03:19;34.90;53.80
8945;DHT22;4507;40.232;29.132;2023-08-06T09:05:51;35.00;53.70
8945;DHT22;4507;40.232;29.132;2023-08-06T09:08:27;35.10;52.40
8945;DHT22;4507;40.232;29.132;2023-08-06T09:10:56;35.20;50.30
8945;DHT22;4507;40.232;29.132;2023-08-06T09:13:25;35.40;49.80
8945;DHT22;4507;40.232;29.132;2023-08-06T09:15:56;35.50;48.70
8945;DHT22;4507;40.232;29.132;2023-08-06T09:18:29;35.60;47.50
8945;DHT22;4507;40.232;29.132;2023-08-06T09:20:59;35.80;46.20
8945;DHT22;4507;40.232;29.132;2023-08-06T09:23:34;35.90;44.60
8945;DHT22;4507;40.232;29.132;2023-08-06T09:26:04;36.00;44.10
8945;DHT22;4507;40.232;29.132;2023-08-06T09:28:40;36.10;43.40
8945;DHT22;4507;40.232;29.132;2023-08-06T09:31:12;36.20;42.30
8945;DHT22;4507;40.232;29.132;2023-08-06T09:37:42;36.40;41.80
8945;DHT22;4507;40.232;29.132;2023-08-06T09:40:29;36.50;41.20
8945;DHT22;4507;40.232;29.132;2023-08-06T09:47:02;36.60;40.90
8945;DHT22;4507;40.232;29.132;2023-08-06T09:49:41;36.70;40.80
8945;DHT22;4507;40.232;29.132;2023-08-06T09:52:13;36.80;40.60
8945;DHT22;4507;40.232;29.132;2023-08-06T09:58:11;37.10;40.70
8945;DHT22;4507;40.232;29.132;2023-08-06T10:00:42;37.20;40.20
8945;DHT22;4507;40.232;29.132;2023-08-06T10:03:12;37.30;39.00
8945;DHT22;4507;40.232;29.132;2023-08-06T10:05:43;37.40;38.60
8945;DHT22;4507;40.232;29.132;2023-08-06T10:08:15;37.40;37.90
8945;DHT22;4507;40.232;29.132;2023-08-06T10:10:45;37.40;37.40
8945;DHT22;4507;40.232;29.132;2023-08-06T10:13:15;37.50;37.10
8945;DHT22;4507;40.232;29.132;2023-08-06T10:15:45;37.60;37.20
8945;DHT22;4507;40.232;29.132;2023-08-06T10:18:16;37.60;37.20
8945;DHT22;4507;40.232;29.132;2023-08-06T10:20:48;37.60;36.80
8945;DHT22;4507;40.232;29.132;2023-08-06T10:23:17;37.70;36.60
8945;DHT22;4507;40.232;29.132;2023-08-06T10:25:55;37.70;37.20
8945;DHT22;4507;40.232;29.132;2023-08-06T10:28:36;37.80;37.20
8945;DHT22;4507;40.232;29.132;2023-08-06T10:31:21;37.90;36.70
8945;DHT22;4507;40.232;29.132;2023-08-06T10:34:20;37.90;35.70
8945;DHT22;4507;40.232;29.132;2023-08-06T10:36:55;38.00;35.60
8945;DHT22;4507;40.232;29.132;2023-08-06T10:39:24;38.00;35.80
8945;DHT22;4507;40.232;29.132;2023-08-06T10:41:57;38.10;35.90
8945;DHT22;4507;40.232;29.132;2023-08-06T10:44:27;38.20;36.20
8945;DHT22;4507;40.232;29.132;2023-08-06T10:47:26;38.20;36.50
8945;DHT22;4507;40.232;29.132;2023-08-06T10:50:04;38.30;36.30
8945;DHT22;4507;40.232;29.132;2023-08-06T10:52:53;38.30;35.90
8945;DHT22;4507;40.232;29.132;2023-08-06T10:55:32;38.30;35.80
8945;DHT22;4507;40.232;29.132;2023-08-06T10:58:01;38.30;35.70
8945;DHT22;4507;40.232;29.132;2023-08-06T11:00:31;38.30;35.70
8945;DHT22;4507;40.232;29.132;2023-08-06T11:03:00;38.30;36.00
8945;DHT22;4507;40.232;29.132;2023-08-06T11:05:34;38.30;36.00
8945;DHT22;4507;40.232;29.132;2023-08-06T11:08:07;38.30;35.80
8945;DHT22;4507;40.232;29.132;2023-08-06T11:10:36;38.30;36.00
8945;DHT22;4507;40.232;29.132;2023-08-06T11:13:16;38.30;36.60
8945;DHT22;4507;40.232;29.132;2023-08-06T11:15:46;38.40;36.80
8945;DHT22;4507;40.232;29.132;2023-08-06T11:18:15;38.50;36.90
8945;DHT22;4507;40.232;29.132;2023-08-06T11:20:45;38.60;37.10
8945;DHT22;4507;40.232;29.132;2023-08-06T11:23:14;38.70;37.40
8945;DHT22;4507;40.232;29.132;2023-08-06T11:25:51;38.80;37.70
8945;DHT22;4507;40.232;29.132;2023-08-06T11:28:26;39.00;37.70
8945;DHT22;4507;40.232;29.132;2023-08-06T11:30:55;39.10;37.70
8945;DHT22;4507;40.232;29.132;2023-08-06T11:33:31;39.20;37.90
8945;DHT22;4507;40.232;29.132;2023-08-06T11:36:10;39.30;37.90
8945;DHT22;4507;40.232;29.132;2023-08-06T11:38:58;39.40;38.30
8945;DHT22;4507;40.232;29.132;2023-08-06T11:41:30;39.50;38.20
8945;DHT22;4507;40.232;29.132;2023-08-06T11:44:13;39.60;37.70
8945;DHT22;4507;40.232;29.132;2023-08-06T11:46:51;39.70;38.30
8945;DHT22;4507;40.232;29.132;2023-08-06T11:49:48;39.80;38.40
8945;DHT22;4507;40.232;29.132;2023-08-06T11:52:28;39.90;38.40
8945;DHT22;4507;40.232;29.132;2023-08-06T11:55:06;39.90;38.30
8945;DHT22;4507;40.232;29.132;2023-08-06T11:57:45;39.90;38.40
8945;DHT22;4507;40.232;29.132;2023-08-06T12:00:24;39.90;38.10
8945;DHT22;4507;40.232;29.132;2023-08-06T12:02:57;39.90;38.00
8945;DHT22;4507;40.232;29.132;2023-08-06T12:05:33;39.80;38.40
8945;DHT22;4507;40.232;29.132;2023-08-06T12:08:04;39.80;38.60
8945;DHT22;4507;40.232;29.132;2023-08-06T12:10:36;39.80;39.00
8945;DHT22;4507;40.232;29.132;2023-08-06T12:13:18;39.80;38.60
8945;DHT22;4507;40.232;29.132;2023-08-06T12:15:55;39.70;39.10
8945;DHT22;4507;40.232;29.132;2023-08-06T12:18:33;39.60;39.20
8945;DHT22;4507;40.232;29.132;2023-08-06T12:21:50;39.40;39.10
8945;DHT22;4507;40.232;29.132;2023-08-06T12:24:41;39.20;39.20
8945;DHT22;4507;40.232;29.132;2023-08-06T12:27:24;39.10;39.60
8945;DHT22;4507;40.232;29.132;2023-08-06T12:30:17;38.90;39.50
8945;DHT22;4507;40.232;29.132;2023-08-06T12:32:53;38.80;39.90
8945;DHT22;4507;40.232;29.132;2023-08-06T12:35:23;38.80;39.70
8945;DHT22;4507;40.232;29.132;2023-08-06T12:38:04;38.70;39.30
8945;DHT22;4507;40.232;29.132;2023-08-06T12:41:00;38.60;39.40
8945;DHT22;4507;40.232;29.132;2023-08-06T12:43:35;38.60;39.70
8945;DHT22;4507;40.232;29.132;2023-08-06T12:46:09;38.70;39.60
8945;DHT22;4507;40.232;29.132;2023-08-06T12:48:43;38.70;39.30
8945;DHT22;4507;40.232;29.132;2023-08-06T12:51:17;38.70;39.40
8945;DHT22;4507;40.232;29.132;2023-08-06T12:53:54;38.70;39.00
8945;DHT22;4507;40.232;29.132;2023-08-06T12:56:39;38.70;38.10
8945;DHT22;4507;40.232;29.132;2023-08-06T12:59:17;38.70;37.10
8945;DHT22;4507;40.232;29.132;2023-08-06T13:01:46;38.70;36.80
8945;DHT22;4507;40.232;29.132;2023-08-06T13:04:20;38.60;36.60
8945;DHT22;4507;40.232;29.132;2023-08-06T13:06:55;38.70;36.10
8945;DHT22;4507;40.232;29.132;2023-08-06T13:09:31;38.70;36.00
8945;DHT22;4507;40.232;29.132;2023-08-06T13:15:38;38.60;35.60
8945;DHT22;4507;40.232;29.132;2023-08-06T13:18:10;38.50;36.10
8945;DHT22;4507;40.232;29.132;2023-08-06T13:20:39;38.50;35.70
8945;DHT22;4507;40.232;29.132;2023-08-06T13:23:11;38.40;36.20
8945;DHT22;4507;40.232;29.132;2023-08-06T13:25:47;38.30;36.40
8945;DHT22;4507;40.232;29.132;2023-08-06T13:28:16;38.30;36.60
8945;DHT22;4507;40.232;29.132;2023-08-06T13:30:47;38.20;36.30
8945;DHT22;4507;40.232;29.132;2023-08-06T13:33:16;38.20;35.90
8945;DHT22;4507;40.232;29.132;2023-08-06T13:35:45;38.10;35.80
8945;DHT22;4507;40.232;29.132;2023-08-06T13:42:00;38.00;35.80
8945;DHT22;4507;40.232;29.132;2023-08-06T13:44:29;37.90;36.00
8945;DHT22;4507;40.232;29.132;2023-08-06T13:46:59;37.80;36.00
8945;DHT22;4507;40.232;29.132;2023-08-06T13:49:28;37.70;36.40
8945;DHT22;4507;40.232;29.132;2023-08-06T13:52:00;37.70;35.80
8945;DHT22;4507;40.232;29.132;2023-08-06T13:54:48;37.60;36.40
8945;DHT22;4507;40.232;29.132;2023-08-06T13:57:17;37.60;37.20
8945;DHT22;4507;40.232;29.132;2023-08-06T13:59:45;37.50;36.50
8945;DHT22;4507;40.232;29.132;2023-08-06T14:02:17;37.50;36.90
8945;DHT22;4507;40.232;29.132;2023-08-06T14:04:46;37.50;36.60
8945;DHT22;4507;40.232;29.132;2023-08-06T14:07:21;37.50;36.80
8945;DHT22;4507;40.232;29.132;2023-08-06T14:09:54;37.50;37.20
8945;DHT22;4507;40.232;29.132;2023-08-06T14:12:24;37.50;37.40
8945;DHT22;4507;40.232;29.132;2023-08-06T14:14:54;37.40;37.50
8945;DHT22;4507;40.232;29.132;2023-08-06T14:17:28;37.40;37.70
8945;DHT22;4507;40.232;29.132;2023-08-06T14:19:57;37.40;37.60
8945;DHT22;4507;40.232;29.132;2023-08-06T14:22:26;37.40;37.10
8945;DHT22;4507;40.232;29.132;2023-08-06T14:24:58;37.30;35.60
8945;DHT22;4507;40.232;29.132;2023-08-06T14:27:27;37.30;35.10
8945;DHT22;4507;40.232;29.132;2023-08-06T14:29:56;37.20;34.40
8945;DHT22;4507;40.232;29.132;2023-08-06T14:32:27;37.20;34.80
8945;DHT22;4507;40.232;29.132;2023-08-06T14:34:56;37.10;35.70
8945;DHT22;4507;40.232;29.132;2023-08-06T14:37:26;37.00;37.10
8945;DHT22;4507;40.232;29.132;2023-08-06T14:39:56;37.00;38.00
8945;DHT22;4507;40.232;29.132;2023-08-06T14:42:25;36.90;38.40
8945;DHT22;4507;40.232;29.132;2023-08-06T14:44:54;36.80;38.80
8945;DHT22;4507;40.232;29.132;2023-08-06T14:47:23;36.80;39.70
8945;DHT22;4507;40.232;29.132;2023-08-06T14:49:54;36.70;42.70
8945;DHT22;4507;40.232;29.132;2023-08-06T14:52:23;36.50;43.50
8945;DHT22;4507;40.232;29.132;2023-08-06T14:54:52;36.30;43.60
8945;DHT22;4507;40.232;29.132;2023-08-06T14:57:23;36.00;43.80
8945;DHT22;4507;40.232;29.132;2023-08-06T14:59:55;35.80;44.20
8945;DHT22;4507;40.232;29.132;2023-08-06T15:02:25;35.60;44.50
8945;DHT22;4507;40.232;29.132;2023-08-06T15:04:55;35.50;45.20
8945;DHT22;4507;40.232;29.132;2023-08-06T15:07:25;35.30;45.50
8945;DHT22;4507;40.232;29.132;2023-08-06T15:13:55;35.10;46.00
8945;DHT22;4507;40.232;29.132;2023-08-06T15:16:31;34.80;46.50
8945;DHT22;4507;40.232;29.132;2023-08-06T15:19:01;34.60;46.60
8945;DHT22;4507;40.232;29.132;2023-08-06T15:21:32;34.50;46.70
8945;DHT22;4507;40.232;29.132;2023-08-06T15:24:01;34.30;46.90
8945;DHT22;4507;40.232;29.132;2023-08-06T15:26:30;34.20;46.90
8945;DHT22;4507;40.232;29.132;2023-08-06T15:28:59;34.00;46.90
8945;DHT22;4507;40.232;29.132;2023-08-06T15:31:46;33.90;47.30
8945;DHT22;4507;40.232;29.132;2023-08-06T15:34:15;33.70;47.40
8945;DHT22;4507;40.232;29.132;2023-08-06T15:37:04;33.50;47.10
8945;DHT22;4507;40.232;29.132;2023-08-06T15:39:33;33.30;47.50
8945;DHT22;4507;40.232;29.132;2023-08-06T15:42:03;33.30;48.00
8945;DHT22;4507;40.232;29.132;2023-08-06T15:44:36;33.10;48.00
8945;DHT22;4507;40.232;29.132;2023-08-06T15:47:09;33.00;48.10
8945;DHT22;4507;40.232;29.132;2023-08-06T15:49:39;32.90;48.30
8945;DHT22;4507;40.232;29.132;2023-08-06T15:52:12;32.90;48.80
8945;DHT22;4507;40.232;29.132;2023-08-06T15:54:47;32.80;49.30
8945;DHT22;4507;40.232;29.132;2023-08-06T15:57:16;32.80;49.70
8945;DHT22;4507;40.232;29.132;2023-08-06T15:59:45;32.70;50.10
8945;DHT22;4507;40.232;29.132;2023-08-06T16:02:14;32.70;50.50
8945;DHT22;4507;40.232;29.132;2023-08-06T16:04:43;32.60;50.90
8945;DHT22;4507;40.232;29.132;2023-08-06T16:07:14;32.50;51.10
8945;DHT22;4507;40.232;29.132;2023-08-06T16:09:43;32.50;51.50
8945;DHT22;4507;40.232;29.132;2023-08-06T16:12:12;32.40;51.70
8945;DHT22;4507;40.232;29.132;2023-08-06T16:14:42;32.40;51.80
8945;DHT22;4507;40.232;29.132;2023-08-06T16:17:11;32.30;51.80
8945;DHT22;4507;40.232;29.132;2023-08-06T16:19:41;32.20;51.90
8945;DHT22;4507;40.232;29.132;2023-08-06T16:22:10;32.20;52.10
8945;DHT22;4507;40.232;29.132;2023-08-06T16:24:40;32.20;52.40
8945;DHT22;4507;40.232;29.132;2023-08-06T16:27:09;32.10;52.60
8945;DHT22;4507;40.232;29.132;2023-08-06T16:29:38;32.00;52.60
8945;DHT22;4507;40.232;29.132;2023-08-06T16:32:07;32.00;52.50
8945;DHT22;4507;40.232;29.132;2023-08-06T16:34:37;31.90;52.60
8945;DHT22;4507;40.232;29.132;2023-08-06T16:37:06;31.90;52.70
8945;DHT22;4507;40.232;29.132;2023-08-06T16:39:35;31.80;52.90
8945;DHT22;4507;40.232;29.132;2023-08-06T16:42:07;31.80;53.10
8945;DHT22;4507;40.232;29.132;2023-08-06T16:44:39;31.70;53.00
8945;DHT22;4507;40.232;29.132;2023-08-06T16:47:08;31.70;53.10
8945;DHT22;4507;40.232;29.132;2023-08-06T16:49:37;31.60;53.30
8945;DHT22;4507;40.232;29.132;2023-08-06T16:52:07;31.60;54.10
8945;DHT22;4507;40.232;29.132;2023-08-06T16:54:36;31.50;53.60
8945;DHT22;4507;40.232;29.132;2023-08-06T16:57:07;31.50;53.80
8945;DHT22;4507;40.232;29.132;2023-08-06T16:59:36;31.40;54.10
8945;DHT22;4507;40.232;29.132;2023-08-06T17:02:05;31.30;54.20
8945;DHT22;4507;40.232;29.132;2023-08-06T17:04:34;31.20;54.50
8945;DHT22;4507;40.232;29.132;2023-08-06T17:07:04;31.10;54.60
8945;DHT22;4507;40.232;29.132;2023-08-06T17:09:33;31.10;54.80
8945;DHT22;4507;40.232;29.132;2023-08-06T17:12:02;30.90;54.80
8945;DHT22;4507;40.232;29.132;2023-08-06T17:14:34;30.90;55.10
8945;DHT22;4507;40.232;29.132;2023-08-06T17:17:04;30.80;55.00
8945;DHT22;4507;40.232;29.132;2023-08-06T17:19:33;30.70;55.10
8945;DHT22;4507;40.232;29.132;2023-08-06T17:22:04;30.60;55.20
8945;DHT22;4507;40.232;29.132;2023-08-06T17:24:33;30.60;55.30
8945;DHT22;4507;40.232;29.132;2023-08-06T17:27:03;30.50;55.50
8945;DHT22;4507;40.232;29.132;2023-08-06T17:29:33;30.50;55.60
8945;DHT22;4507;40.232;29.132;2023-08-06T17:32:03;30.50;55.70
8945;DHT22;4507;40.232;29.132;2023-08-06T17:34:32;30.40;55.90